sensor_id;sensor_type;location;lat;lon;timestamp;pressure;altitude;pressure_sealevel;temperature;humidity
59654;BME280;66556;52.008;5.432;2023-03-16T00:00:35;101785.0;;;14.6;36.92
59654;BME280;66556;52.008;5.432;2023-03-16T00:02:12;101793.0;;;14.35;37.28
59654;BME280;66556;52.008;5.432;2023-03-16T00:05:24;101794.0;;;14.77;36.81
59654;BME280;66556;52.008;5.432;2023-03-16T00:07:00;101792.0;;;15.32;35.81
59654;BME280;66556;52.008;5.432;2023-03-16T00:08:36;101793.0;;;14.94;36.24
59654;BME280;66556;52.008;5.432;2023-03-16T00:11:49;101791.0;;;14.43;37.35
59654;BME280;66556;52.008;5.432;2023-03-16T00:13:25;101794.0;;;14.8;36.89
59654;BME280;66556;52.008;5.432;2023-03-16T00:15:02;101790.0;;;14.9;36.85
59654;BME280;66556;52.008;5.432;2023-03-16T00:16:38;101778.0;;;15.04;36.9
59654;BME280;66556;52.008;5.432;2023-03-16T00:19:52;101766.0;;;15.54;35.9
59654;BME280;66556;52.008;5.432;2023-03-16T00:21:29;101773.0;;;14.96;36.56
59654;BME280;66556;52.008;5.432;2023-03-16T00:23:05;101769.0;;;15.39;36.03
59654;BME280;66556;52.008;5.432;2023-03-16T00:26:17;101773.0;;;15.44;36.24
59654;BME280;66556;52.008;5.432;2023-03-16T00:27:54;101778.0;;;14.99;36.67
59654;BME280;66556;52.008;5.432;2023-03-16T00:29:30;101771.0;;;14.82;37.42
59654;BME280;66556;52.008;5.432;2023-03-16T00:32:45;101759.0;;;15.11;36.94
59654;BME280;66556;52.008;5.432;2023-03-16T00:34:21;101767.0;;;14.55;37.89
59654;BME280;66556;52.008;5.432;2023-03-16T00:35:57;101759.0;;;14.82;37.53
59654;BME280;66556;52.008;5.432;2023-03-16T00:37:33;101755.0;;;15.32;36.74
59654;BME280;66556;52.008;5.432;2023-03-16T00:40:45;101750.0;;;14.96;37.29
59654;BME280;66556;52.008;5.432;2023-03-16T00:42:23;101752.0;;;14.94;37.54
59654;BME280;66556;52.008;5.432;2023-03-16T00:44:00;101753.0;;;14.76;38.31
59654;BME280;66556;52.008;5.432;2023-03-16T00:47:12;101755.0;;;14.65;38.44
59654;BME280;66556;52.008;5.432;2023-03-16T00:48:49;101747.0;;;14.7;38.69
59654;BME280;66556;52.008;5.432;2023-03-16T00:50:25;101752.0;;;14.39;39.15
59654;BME280;66556;52.008;5.432;2023-03-16T00:53:40;101748.0;;;14.34;39.54
59654;BME280;66556;52.008;5.432;2023-03-16T00:55:17;101746.0;;;14.58;38.86
59654;BME280;66556;52.008;5.432;2023-03-16T00:56:53;101740.0;;;14.74;38.85
59654;BME280;66556;52.008;5.432;2023-03-16T00:58:29;101747.0;;;14.62;38.74
59654;BME280;66556;52.008;5.432;2023-03-16T01:01:42;101742.0;;;14.87;38.49
59654;BME280;66556;52.008;5.432;2023-03-16T01:03:18;101725.0;;;15.15;37.94
59654;BME280;66556;52.008;5.432;2023-03-16T01:04:54;101721.0;;;15.04;38.18
59654;BME280;66556;52.008;5.432;2023-03-16T01:08:07;101720.0;;;14.82;38.83
59654;BME280;66556;52.008;5.432;2023-03-16T01:09:44;101719.0;;;14.6;39.56
59654;BME280;66556;52.008;5.432;2023-03-16T01:11:21;101714.0;;;14.62;39.69
59654;BME280;66556;52.008;5.432;2023-03-16T01:14:35;101709.0;;;14.53;39.94
59654;BME280;66556;52.008;5.432;2023-03-16T01:16:13;101706.0;;;14.74;39.53
59654;BME280;66556;52.008;5.432;2023-03-16T01:17:49;101698.0;;;14.41;40.04
59654;BME280;66556;52.008;5.432;2023-03-16T01:19:26;101693.0;;;14.85;39.25
59654;BME280;66556;52.008;5.432;2023-03-16T01:22:42;101700.0;;;14.52;40.06
59654;BME280;66556;52.008;5.432;2023-03-16T01:24:18;101700.0;;;14.62;39.56
59654;BME280;66556;52.008;5.432;2023-03-16T01:25:54;101696.0;;;14.2;40.61
59654;BME280;66556;52.008;5.432;2023-03-16T01:29:07;101695.0;;;14.54;40.62
59654;BME280;66556;52.008;5.432;2023-03-16T01:30:43;101689.0;;;14.76;39.74
59654;BME280;66556;52.008;5.432;2023-03-16T01:32:19;101697.0;;;14.53;39.99
59654;BME280;66556;52.008;5.432;2023-03-16T01:35:33;101691.0;;;14.83;39.42
59654;BME280;66556;52.008;5.432;2023-03-16T01:37:09;101692.0;;;14.54;40.53
59654;BME280;66556;52.008;5.432;2023-03-16T01:38:45;101684.0;;;14.33;40.32
59654;BME280;66556;52.008;5.432;2023-03-16T01:40:22;101684.0;;;14.21;41.33
59654;BME280;66556;52.008;5.432;2023-03-16T01:43:37;101677.0;;;14.14;41.19
59654;BME280;66556;52.008;5.432;2023-03-16T01:46:21;101670.0;;;14.56;40.03
59654;BME280;66556;52.008;5.432;2023-03-16T01:47:59;101668.0;;;14.53;40.54
59654;BME280;66556;52.008;5.432;2023-03-16T01:49:36;101667.0;;;14.94;39.79
59654;BME280;66556;52.008;5.432;2023-03-16T01:51:16;101667.0;;;14.96;39.53
59654;BME280;66556;52.008;5.432;2023-03-16T01:52:53;101671.0;;;15.16;39.18
59654;BME280;66556;52.008;5.432;2023-03-16T01:56:13;101669.0;;;14.84;39.58
59654;BME280;66556;52.008;5.432;2023-03-16T01:57:51;101668.0;;;15.49;38.42
59654;BME280;66556;52.008;5.432;2023-03-16T01:59:34;101665.0;;;15.42;38.68
59654;BME280;66556;52.008;5.432;2023-03-16T02:01:13;101660.0;;;14.93;39.6
59654;BME280;66556;52.008;5.432;2023-03-16T02:04:39;101655.0;;;14.96;39.72
59654;BME280;66556;52.008;5.432;2023-03-16T02:06:19;101652.0;;;14.6;40.72
59654;BME280;66556;52.008;5.432;2023-03-16T02:07:55;101649.0;;;14.84;40.26
59654;BME280;66556;52.008;5.432;2023-03-16T02:11:12;101650.0;;;14.96;39.86
59654;BME280;66556;52.008;5.432;2023-03-16T02:12:51;101644.0;;;14.65;40.62
59654;BME280;66556;52.008;5.432;2023-03-16T02:14:27;101637.0;;;14.82;40.67
59654;BME280;66556;52.008;5.432;2023-03-16T02:16:05;101636.0;;;15.04;39.92
59654;BME280;66556;52.008;5.432;2023-03-16T02:19:29;101635.0;;;14.75;40.53
59654;BME280;66556;52.008;5.432;2023-03-16T02:21:13;101631.0;;;14.37;40.81
59654;BME280;66556;52.008;5.432;2023-03-16T02:22:56;101630.0;;;14.92;40.21
59654;BME280;66556;52.008;5.432;2023-03-16T02:24:33;101626.0;;;14.71;40.57
59654;BME280;66556;52.008;5.432;2023-03-16T02:28:01;101622.0;;;15.02;40.24
59654;BME280;66556;52.008;5.432;2023-03-16T02:30:04;101621.0;;;15.0;40.1
59654;BME280;66556;52.008;5.432;2023-03-16T02:31:51;101622.0;;;14.6;40.49
59654;BME280;66556;52.008;5.432;2023-03-16T02:33:29;101622.0;;;14.31;41.45
59654;BME280;66556;52.008;5.432;2023-03-16T02:35:08;101624.0;;;14.45;41.64
59654;BME280;66556;52.008;5.432;2023-03-16T02:36:46;101618.0;;;14.51;41.06
59654;BME280;66556;52.008;5.432;2023-03-16T02:40:12;101617.0;;;14.5;41.34
59654;BME280;66556;52.008;5.432;2023-03-16T02:41:54;101613.0;;;14.8;40.96
59654;BME280;66556;52.008;5.432;2023-03-16T02:43:32;101617.0;;;14.72;40.42
59654;BME280;66556;52.008;5.432;2023-03-16T02:45:11;101614.0;;;14.43;41.33
59654;BME280;66556;52.008;5.432;2023-03-16T02:48:27;101621.0;;;14.57;41.3
59654;BME280;66556;52.008;5.432;2023-03-16T02:50:11;101625.0;;;13.86;42.49
59654;BME280;66556;52.008;5.432;2023-03-16T02:51:48;101631.0;;;13.43;44.21
59654;BME280;66556;52.008;5.432;2023-03-16T02:55:00;101630.0;;;13.9;43.08
59654;BME280;66556;52.008;5.432;2023-03-16T02:56:37;101625.0;;;14.28;42.34
59654;BME280;66556;52.008;5.432;2023-03-16T02:58:14;101634.0;;;14.1;42.56
59654;BME280;66556;52.008;5.432;2023-03-16T02:59:50;101637.0;;;14.29;42.07
59654;BME280;66556;52.008;5.432;2023-03-16T03:03:03;101630.0;;;14.37;41.94
59654;BME280;66556;52.008;5.432;2023-03-16T03:04:40;101635.0;;;14.81;41.45
59654;BME280;66556;52.008;5.432;2023-03-16T03:06:17;101634.0;;;14.36;42.12
59654;BME280;66556;52.008;5.432;2023-03-16T03:09:30;101633.0;;;14.09;42.42
59654;BME280;66556;52.008;5.432;2023-03-16T03:11:06;101630.0;;;14.37;42.53
59654;BME280;66556;52.008;5.432;2023-03-16T03:12:42;101628.0;;;14.35;42.2
59654;BME280;66556;52.008;5.432;2023-03-16T03:15:55;101626.0;;;14.16;42.6
59654;BME280;66556;52.008;5.432;2023-03-16T03:17:31;101622.0;;;13.9;43.65
59654;BME280;66556;52.008;5.432;2023-03-16T03:19:07;101619.0;;;14.1;43.58
59654;BME280;66556;52.008;5.432;2023-03-16T03:20:43;101617.0;;;14.04;43.46
59654;BME280;66556;52.008;5.432;2023-03-16T03:23:56;101609.0;;;14.37;42.93
59654;BME280;66556;52.008;5.432;2023-03-16T03:25:32;101611.0;;;14.57;42.56
59654;BME280;66556;52.008;5.432;2023-03-16T03:27:08;101605.0;;;14.59;42.56
59654;BME280;66556;52.008;5.432;2023-03-16T03:30:24;101605.0;;;14.55;42.6
59654;BME280;66556;52.008;5.432;2023-03-16T03:32:02;101601.0;;;14.71;42.61
59654;BME280;66556;52.008;5.432;2023-03-16T03:33:39;101601.0;;;14.15;43.69
59654;BME280;66556;52.008;5.432;2023-03-16T03:36:51;101601.0;;;14.0;44.06
59654;BME280;66556;52.008;5.432;2023-03-16T03:38:27;101601.0;;;14.04;44.46
59654;BME280;66556;52.008;5.432;2023-03-16T03:40:05;101602.0;;;14.37;43.69
59654;BME280;66556;52.008;5.432;2023-03-16T03:41:41;101599.0;;;14.06;44.22
59654;BME280;66556;52.008;5.432;2023-03-16T03:44:55;101591.0;;;14.23;44.26
59654;BME280;66556;52.008;5.432;2023-03-16T03:46:31;101584.0;;;14.3;44.09
59654;BME280;66556;52.008;5.432;2023-03-16T03:48:07;101591.0;;;13.28;46.84
59654;BME280;66556;52.008;5.432;2023-03-16T03:51:19;101587.0;;;13.78;46.17
59654;BME280;66556;52.008;5.432;2023-03-16T03:52:55;101592.0;;;13.62;46.58
59654;BME280;66556;52.008;5.432;2023-03-16T03:54:32;101577.0;;;14.07;45.3
59654;BME280;66556;52.008;5.432;2023-03-16T03:57:44;101574.0;;;14.15;45.15
59654;BME280;66556;52.008;5.432;2023-03-16T03:59:20;101573.0;;;14.1;45.25
59654;BME280;66556;52.008;5.432;2023-03-16T04:00:56;101570.0;;;14.16;45.13
59654;BME280;66556;52.008;5.432;2023-03-16T04:02:33;101568.0;;;14.01;45.62
59654;BME280;66556;52.008;5.432;2023-03-16T04:05:45;101571.0;;;13.9;45.95
59654;BME280;66556;52.008;5.432;2023-03-16T04:07:21;101570.0;;;13.73;46.12
59654;BME280;66556;52.008;5.432;2023-03-16T04:08:57;101559.0;;;14.12;45.57
59654;BME280;66556;52.008;5.432;2023-03-16T04:12:10;101576.0;;;13.85;46.11
59654;BME280;66556;52.008;5.432;2023-03-16T04:13:50;101568.0;;;14.13;45.79
59654;BME280;66556;52.008;5.432;2023-03-16T04:15:26;101570.0;;;13.85;46.26
59654;BME280;66556;52.008;5.432;2023-03-16T04:18:38;101564.0;;;13.89;46.63
59654;BME280;66556;52.008;5.432;2023-03-16T04:20:15;101565.0;;;13.81;46.84
59654;BME280;66556;52.008;5.432;2023-03-16T04:21:51;101565.0;;;13.8;46.72
59654;BME280;66556;52.008;5.432;2023-03-16T04:23:28;101557.0;;;13.9;46.46
59654;BME280;66556;52.008;5.432;2023-03-16T04:26:40;101556.0;;;13.62;47.47
59654;BME280;66556;52.008;5.432;2023-03-16T04:28:16;101555.0;;;13.9;46.75
59654;BME280;66556;52.008;5.432;2023-03-16T04:29:52;101552.0;;;13.81;46.82
59654;BME280;66556;52.008;5.432;2023-03-16T04:33:04;101556.0;;;13.0;49.35
59654;BME280;66556;52.008;5.432;2023-03-16T04:34:40;101556.0;;;12.88;49.57
59654;BME280;66556;52.008;5.432;2023-03-16T04:36:17;101565.0;;;12.72;49.7
59654;BME280;66556;52.008;5.432;2023-03-16T04:39:29;101558.0;;;12.76;49.8
59654;BME280;66556;52.008;5.432;2023-03-16T04:41:05;101558.0;;;13.13;48.87
59654;BME280;66556;52.008;5.432;2023-03-16T04:42:43;101551.0;;;13.12;48.87
59654;BME280;66556;52.008;5.432;2023-03-16T04:45:55;101562.0;;;13.25;48.62
59654;BME280;66556;52.008;5.432;2023-03-16T04:47:31;101551.0;;;13.39;48.55
59654;BME280;66556;52.008;5.432;2023-03-16T04:49:08;101545.0;;;13.68;47.55
59654;BME280;66556;52.008;5.432;2023-03-16T04:50:47;101549.0;;;13.49;47.62
59654;BME280;66556;52.008;5.432;2023-03-16T04:54:00;101546.0;;;13.73;47.12
59654;BME280;66556;52.008;5.432;2023-03-16T04:55:36;101547.0;;;14.16;46.07
59654;BME280;66556;52.008;5.432;2023-03-16T04:57:12;101545.0;;;13.99;46.36
59654;BME280;66556;52.008;5.432;2023-03-16T05:00:25;101543.0;;;13.88;46.31
59654;BME280;66556;52.008;5.432;2023-03-16T05:02:02;101550.0;;;13.9;46.07
59654;BME280;66556;52.008;5.432;2023-03-16T05:03:40;101546.0;;;13.7;46.5
59654;BME280;66556;52.008;5.432;2023-03-16T05:06:53;101538.0;;;13.89;46.04
59654;BME280;66556;52.008;5.432;2023-03-16T05:08:29;101539.0;;;13.98;46.04
59654;BME280;66556;52.008;5.432;2023-03-16T05:10:06;101540.0;;;14.35;45.03
59654;BME280;66556;52.008;5.432;2023-03-16T05:11:42;101539.0;;;13.86;45.85
59654;BME280;66556;52.008;5.432;2023-03-16T05:14:55;101543.0;;;14.17;45.55
59654;BME280;66556;52.008;5.432;2023-03-16T05:16:31;101546.0;;;14.38;44.78
59654;BME280;66556;52.008;5.432;2023-03-16T05:18:08;101543.0;;;14.19;45.13
59654;BME280;66556;52.008;5.432;2023-03-16T05:21:20;101541.0;;;14.59;44.27
59654;BME280;66556;52.008;5.432;2023-03-16T05:22:56;101542.0;;;14.57;44.18
59654;BME280;66556;52.008;5.432;2023-03-16T05:24:32;101542.0;;;14.56;44.34
59654;BME280;66556;52.008;5.432;2023-03-16T05:27:46;101539.0;;;14.72;43.79
59654;BME280;66556;52.008;5.432;2023-03-16T05:29:24;101539.0;;;14.33;44.57
59654;BME280;66556;52.008;5.432;2023-03-16T05:31:00;101541.0;;;14.25;45.0
59654;BME280;66556;52.008;5.432;2023-03-16T05:32:36;101542.0;;;14.72;44.05
59654;BME280;66556;52.008;5.432;2023-03-16T05:35:49;101544.0;;;14.7;43.66
59654;BME280;66556;52.008;5.432;2023-03-16T05:37:26;101536.0;;;14.43;44.58
59654;BME280;66556;52.008;5.432;2023-03-16T05:39:02;101539.0;;;14.52;44.33
59654;BME280;66556;52.008;5.432;2023-03-16T05:42:14;101532.0;;;14.28;44.82
59654;BME280;66556;52.008;5.432;2023-03-16T05:43:51;101534.0;;;14.71;44.24
59654;BME280;66556;52.008;5.432;2023-03-16T05:45:27;101528.0;;;14.43;44.48
59654;BME280;66556;52.008;5.432;2023-03-16T05:48:39;101530.0;;;14.17;45.63
59654;BME280;66556;52.008;5.432;2023-03-16T05:50:16;101526.0;;;14.76;44.33
59654;BME280;66556;52.008;5.432;2023-03-16T05:51:52;101527.0;;;14.2;45.32
59654;BME280;66556;52.008;5.432;2023-03-16T05:53:28;101530.0;;;14.27;45.58
59654;BME280;66556;52.008;5.432;2023-03-16T05:56:43;101524.0;;;14.23;45.4
59654;BME280;66556;52.008;5.432;2023-03-16T05:58:19;101526.0;;;14.01;45.91
59654;BME280;66556;52.008;5.432;2023-03-16T05:59:55;101527.0;;;14.44;44.86
59654;BME280;66556;52.008;5.432;2023-03-16T06:03:07;101522.0;;;14.21;45.77
59654;BME280;66556;52.008;5.432;2023-03-16T06:04:43;101523.0;;;14.0;46.38
59654;BME280;66556;52.008;5.432;2023-03-16T06:06:19;101519.0;;;14.04;46.59
59654;BME280;66556;52.008;5.432;2023-03-16T06:09:34;101516.0;;;14.29;46.06
59654;BME280;66556;52.008;5.432;2023-03-16T06:11:10;101513.0;;;14.43;45.75
59654;BME280;66556;52.008;5.432;2023-03-16T06:12:47;101523.0;;;14.08;46.37
59654;BME280;66556;52.008;5.432;2023-03-16T06:14:23;101520.0;;;13.89;46.79
59654;BME280;66556;52.008;5.432;2023-03-16T06:17:36;101521.0;;;14.2;46.28
59654;BME280;66556;52.008;5.432;2023-03-16T06:19:13;101518.0;;;14.12;46.2
59654;BME280;66556;52.008;5.432;2023-03-16T06:20:49;101516.0;;;14.11;46.44
59654;BME280;66556;52.008;5.432;2023-03-16T06:24:03;101521.0;;;14.39;45.62
59654;BME280;66556;52.008;5.432;2023-03-16T06:25:40;101517.0;;;14.49;45.48
59654;BME280;66556;52.008;5.432;2023-03-16T06:27:16;101514.0;;;14.35;45.89
59654;BME280;66556;52.008;5.432;2023-03-16T06:30:29;101513.0;;;14.34;45.64
59654;BME280;66556;52.008;5.432;2023-03-16T06:32:05;101512.0;;;14.36;45.71
59654;BME280;66556;52.008;5.432;2023-03-16T06:33:41;101505.0;;;14.2;46.18
59654;BME280;66556;52.008;5.432;2023-03-16T06:35:18;101506.0;;;13.53;48.41
59654;BME280;66556;52.008;5.432;2023-03-16T06:38:30;101503.0;;;13.59;49.02
59654;BME280;66556;52.008;5.432;2023-03-16T06:40:07;101495.0;;;13.54;48.38
59654;BME280;66556;52.008;5.432;2023-03-16T06:41:44;101505.0;;;13.58;48.58
59654;BME280;66556;52.008;5.432;2023-03-16T06:44:56;101498.0;;;14.39;46.6
59654;BME280;66556;52.008;5.432;2023-03-16T06:46:32;101489.0;;;14.72;45.32
59654;BME280;66556;52.008;5.432;2023-03-16T06:48:08;101501.0;;;14.47;45.93
59654;BME280;66556;52.008;5.432;2023-03-16T06:51:21;101503.0;;;14.52;45.93
59654;BME280;66556;52.008;5.432;2023-03-16T06:52:57;101497.0;;;14.43;45.82
59654;BME280;66556;52.008;5.432;2023-03-16T06:54:33;101499.0;;;14.6;45.81
59654;BME280;66556;52.008;5.432;2023-03-16T06:57:46;101505.0;;;13.98;47.21
59654;BME280;66556;52.008;5.432;2023-03-16T06:59:22;101498.0;;;14.58;45.89
59654;BME280;66556;52.008;5.432;2023-03-16T07:01:00;101505.0;;;14.37;46.31
59654;BME280;66556;52.008;5.432;2023-03-16T07:02:37;101497.0;;;14.49;45.72
59654;BME280;66556;52.008;5.432;2023-03-16T07:05:49;101498.0;;;14.45;45.59
59654;BME280;66556;52.008;5.432;2023-03-16T07:07:25;101484.0;;;14.19;46.31
59654;BME280;66556;52.008;5.432;2023-03-16T07:09:01;101483.0;;;14.47;46.07
59654;BME280;66556;52.008;5.432;2023-03-16T07:12:14;101489.0;;;14.14;46.31
59654;BME280;66556;52.008;5.432;2023-03-16T07:13:51;101489.0;;;14.33;46.55
59654;BME280;66556;52.008;5.432;2023-03-16T07:15:27;101484.0;;;14.75;45.89
59654;BME280;66556;52.008;5.432;2023-03-16T07:18:39;101480.0;;;14.69;45.62
59654;BME280;66556;52.008;5.432;2023-03-16T07:20:15;101480.0;;;13.84;47.22
59654;BME280;66556;52.008;5.432;2023-03-16T07:21:51;101471.0;;;14.33;46.33
59654;BME280;66556;52.008;5.432;2023-03-16T07:23:28;101480.0;;;14.26;46.65
59654;BME280;66556;52.008;5.432;2023-03-16T07:26:42;101469.0;;;14.24;46.39
59654;BME280;66556;52.008;5.432;2023-03-16T07:28:18;101470.0;;;14.22;47.21
59654;BME280;66556;52.008;5.432;2023-03-16T07:29:55;101472.0;;;14.03;47.85
59654;BME280;66556;52.008;5.432;2023-03-16T07:33:08;101478.0;;;14.37;46.81
59654;BME280;66556;52.008;5.432;2023-03-16T07:34:43;101483.0;;;14.42;46.88
59654;BME280;66556;52.008;5.432;2023-03-16T07:36:20;101480.0;;;14.27;46.9
59654;BME280;66556;52.008;5.432;2023-03-16T07:39:32;101480.0;;;14.59;46.27
59654;BME280;66556;52.008;5.432;2023-03-16T07:41:08;101471.0;;;14.2;47.31
59654;BME280;66556;52.008;5.432;2023-03-16T07:42:44;101480.0;;;13.62;48.63
59654;BME280;66556;52.008;5.432;2023-03-16T07:44:20;101476.0;;;13.93;47.71
59654;BME280;66556;52.008;5.432;2023-03-16T07:47:33;101475.0;;;13.92;47.77
59654;BME280;66556;52.008;5.432;2023-03-16T07:49:10;101477.0;;;14.14;47.95
59654;BME280;66556;52.008;5.432;2023-03-16T07:50:47;101484.0;;;14.46;46.99
59654;BME280;66556;52.008;5.432;2023-03-16T07:53:59;101480.0;;;14.01;48.16
59654;BME280;66556;52.008;5.432;2023-03-16T07:55:35;101480.0;;;14.21;47.91
59654;BME280;66556;52.008;5.432;2023-03-16T07:57:11;101481.0;;;14.15;47.85
59654;BME280;66556;52.008;5.432;2023-03-16T08:00:24;101481.0;;;14.18;47.6
59654;BME280;66556;52.008;5.432;2023-03-16T08:02:00;101484.0;;;14.42;47.13
59654;BME280;66556;52.008;5.432;2023-03-16T08:03:36;101495.0;;;14.54;46.84
59654;BME280;66556;52.008;5.432;2023-03-16T08:05:13;101483.0;;;14.37;47.0
59654;BME280;66556;52.008;5.432;2023-03-16T08:08:25;101484.0;;;14.17;47.21
59654;BME280;66556;52.008;5.432;2023-03-16T08:10:02;101480.0;;;14.13;47.47
59654;BME280;66556;52.008;5.432;2023-03-16T08:11:39;101482.0;;;14.41;46.57
59654;BME280;66556;52.008;5.432;2023-03-16T08:14:51;101467.0;;;14.34;48.16
59654;BME280;66556;52.008;5.432;2023-03-16T08:16:27;101469.0;;;14.45;47.49
59654;BME280;66556;52.008;5.432;2023-03-16T08:18:03;101465.0;;;14.46;47.48
59654;BME280;66556;52.008;5.432;2023-03-16T08:21:15;101456.0;;;14.77;47.29
59654;BME280;66556;52.008;5.432;2023-03-16T08:22:52;101460.0;;;14.17;47.94
59654;BME280;66556;52.008;5.432;2023-03-16T08:24:29;101463.0;;;14.53;47.62
59654;BME280;66556;52.008;5.432;2023-03-16T08:27:41;101464.0;;;14.61;47.17
59654;BME280;66556;52.008;5.432;2023-03-16T08:29:17;101457.0;;;14.54;46.73
59654;BME280;66556;52.008;5.432;2023-03-16T08:30:54;101455.0;;;14.81;46.91
59654;BME280;66556;52.008;5.432;2023-03-16T08:32:31;101455.0;;;14.82;46.32
59654;BME280;66556;52.008;5.432;2023-03-16T08:35:45;101455.0;;;15.2;46.34
59654;BME280;66556;52.008;5.432;2023-03-16T08:37:23;101457.0;;;14.98;45.99
59654;BME280;66556;52.008;5.432;2023-03-16T08:38:59;101467.0;;;14.81;46.59
59654;BME280;66556;52.008;5.432;2023-03-16T08:42:12;101468.0;;;15.2;45.88
59654;BME280;66556;52.008;5.432;2023-03-16T08:43:48;101463.0;;;15.45;44.97
59654;BME280;66556;52.008;5.432;2023-03-16T08:45:24;101466.0;;;15.09;45.37
59654;BME280;66556;52.008;5.432;2023-03-16T08:48:36;101470.0;;;14.74;45.82
59654;BME280;66556;52.008;5.432;2023-03-16T08:50:12;101464.0;;;15.17;45.7
59654;BME280;66556;52.008;5.432;2023-03-16T08:51:49;101472.0;;;15.27;44.57
59654;BME280;66556;52.008;5.432;2023-03-16T08:53:25;101467.0;;;15.16;45.04
59654;BME280;66556;52.008;5.432;2023-03-16T08:56:38;101461.0;;;15.49;44.73
59654;BME280;66556;52.008;5.432;2023-03-16T08:58:14;101462.0;;;15.3;44.87
59654;BME280;66556;52.008;5.432;2023-03-16T08:59:50;101455.0;;;15.66;44.89
59654;BME280;66556;52.008;5.432;2023-03-16T09:03:04;101460.0;;;15.65;44.06
59654;BME280;66556;52.008;5.432;2023-03-16T09:04:41;101459.0;;;15.55;44.63
59654;BME280;66556;52.008;5.432;2023-03-16T09:06:17;101452.0;;;15.42;44.53
59654;BME280;66556;52.008;5.432;2023-03-16T09:09:30;101459.0;;;15.27;45.17
59654;BME280;66556;52.008;5.432;2023-03-16T09:11:08;101453.0;;;15.5;44.07
59654;BME280;66556;52.008;5.432;2023-03-16T09:12:45;101457.0;;;15.21;44.44
59654;BME280;66556;52.008;5.432;2023-03-16T09:14:21;101455.0;;;15.97;43.21
59654;BME280;66556;52.008;5.432;2023-03-16T09:17:33;101455.0;;;15.72;43.36
59654;BME280;66556;52.008;5.432;2023-03-16T09:19:10;101459.0;;;15.55;44.07
59654;BME280;66556;52.008;5.432;2023-03-16T09:20:46;101459.0;;;15.63;43.65
59654;BME280;66556;52.008;5.432;2023-03-16T09:26:13;101456.0;;;15.92;43.72
59654;BME280;66556;52.008;5.432;2023-03-16T09:27:49;101448.0;;;16.28;42.71
59654;BME280;66556;52.008;5.432;2023-03-16T09:29:26;101465.0;;;15.82;42.87
59654;BME280;66556;52.008;5.432;2023-03-16T09:31:02;101453.0;;;16.0;43.03
59654;BME280;66556;52.008;5.432;2023-03-16T09:34:15;101461.0;;;15.83;43.91
59654;BME280;66556;52.008;5.432;2023-03-16T09:37:28;101455.0;;;16.11;43.22
59654;BME280;66556;52.008;5.432;2023-03-16T09:40:40;101459.0;;;16.2;42.52
59654;BME280;66556;52.008;5.432;2023-03-16T09:42:18;101451.0;;;16.7;42.08
59654;BME280;66556;52.008;5.432;2023-03-16T09:44:09;101447.0;;;16.23;42.46
59654;BME280;66556;52.008;5.432;2023-03-16T09:45:57;101449.0;;;16.28;42.33
59654;BME280;66556;52.008;5.432;2023-03-16T09:49:18;101448.0;;;16.39;42.42
59654;BME280;66556;52.008;5.432;2023-03-16T09:50:56;101442.0;;;16.37;42.51
59654;BME280;66556;52.008;5.432;2023-03-16T09:52:41;101450.0;;;16.29;41.96
59654;BME280;66556;52.008;5.432;2023-03-16T09:54:23;101444.0;;;16.4;42.69
59654;BME280;66556;52.008;5.432;2023-03-16T09:56:08;101445.0;;;16.36;43.22
59654;BME280;66556;52.008;5.432;2023-03-16T09:59:24;101444.0;;;16.52;41.9
59654;BME280;66556;52.008;5.432;2023-03-16T10:01:06;101434.0;;;16.87;42.11
59654;BME280;66556;52.008;5.432;2023-03-16T10:02:58;101437.0;;;16.7;41.41
59654;BME280;66556;52.008;5.432;2023-03-16T10:04:57;101435.0;;;16.84;41.28
59654;BME280;66556;52.008;5.432;2023-03-16T10:06:45;101430.0;;;17.2;41.24
59654;BME280;66556;52.008;5.432;2023-03-16T10:10:20;101418.0;;;17.18;40.49
59654;BME280;66556;52.008;5.432;2023-03-16T10:12:03;101415.0;;;17.25;40.64
59654;BME280;66556;52.008;5.432;2023-03-16T10:13:46;101411.0;;;17.72;39.61
59654;BME280;66556;52.008;5.432;2023-03-16T10:15:26;101413.0;;;17.81;40.25
59654;BME280;66556;52.008;5.432;2023-03-16T10:17:10;101410.0;;;18.03;39.97
59654;BME280;66556;52.008;5.432;2023-03-16T10:20:36;101400.0;;;17.81;40.26
59654;BME280;66556;52.008;5.432;2023-03-16T10:22:18;101402.0;;;18.0;38.54
59654;BME280;66556;52.008;5.432;2023-03-16T10:23:56;101405.0;;;18.63;37.87
59654;BME280;66556;52.008;5.432;2023-03-16T10:25:42;101401.0;;;17.97;38.0
59654;BME280;66556;52.008;5.432;2023-03-16T10:29:03;101407.0;;;17.88;36.9
59654;BME280;66556;52.008;5.432;2023-03-16T10:30:42;101413.0;;;18.25;38.36
59654;BME280;66556;52.008;5.432;2023-03-16T10:32:18;101422.0;;;18.18;36.39
59654;BME280;66556;52.008;5.432;2023-03-16T10:34:01;101405.0;;;18.66;37.67
59654;BME280;66556;52.008;5.432;2023-03-16T10:37:23;101395.0;;;18.2;36.85
59654;BME280;66556;52.008;5.432;2023-03-16T10:39:02;101386.0;;;18.09;37.67
59654;BME280;66556;52.008;5.432;2023-03-16T10:40:40;101389.0;;;18.34;36.49
59654;BME280;66556;52.008;5.432;2023-03-16T10:42:18;101394.0;;;18.63;37.5
59654;BME280;66556;52.008;5.432;2023-03-16T10:45:35;101398.0;;;18.39;38.32
59654;BME280;66556;52.008;5.432;2023-03-16T10:47:17;101391.0;;;18.27;37.17
59654;BME280;66556;52.008;5.432;2023-03-16T10:48:55;101399.0;;;18.34;35.74
59654;BME280;66556;52.008;5.432;2023-03-16T10:50:32;101377.0;;;18.93;35.6
59654;BME280;66556;52.008;5.432;2023-03-16T10:53:56;101378.0;;;18.78;35.69
59654;BME280;66556;52.008;5.432;2023-03-16T10:55:41;101376.0;;;19.02;36.53
59654;BME280;66556;52.008;5.432;2023-03-16T10:57:22;101374.0;;;18.61;35.19
59654;BME280;66556;52.008;5.432;2023-03-16T11:01:10;101363.0;;;18.54;37.08
59654;BME280;66556;52.008;5.432;2023-03-16T11:02:46;101373.0;;;18.13;35.56
59654;BME280;66556;52.008;5.432;2023-03-16T11:04:23;101370.0;;;18.64;36.6
59654;BME280;66556;52.008;5.432;2023-03-16T11:06:00;101362.0;;;18.86;35.92
59654;BME280;66556;52.008;5.432;2023-03-16T11:10:58;101363.0;;;18.5;35.78
59654;BME280;66556;52.008;5.432;2023-03-16T11:14:12;101364.0;;;18.77;35.28